Time;durP1;ratioP1;P1;durP2;ratioP2;P2;SDS_P1;SDS_P2;PMS_P1;PMS_P2;Temp;Humidity;BMP_temperature;BMP_pressure;BME280_temperature;BME280_humidity;BME280_pressure;Samples;Min_cycle;Max_cycle;Signal;HPM_P1;HPM_P2
2023/01/21 00:00:40;;;;;;;14.57;9.97;;;;;;;5.06;86.93;94236.66;5014672;28;20477;-73
2023/01/21 00:03:06;;;;;;;15.53;10.40;;;;;;;5.23;86.29;94233.53;5010936;28;20434;-73
2023/01/21 00:05:31;;;;;;;16.07;11.13;;;;;;;5.08;86.39;94238.06;5013591;28;20433;-73
2023/01/21 00:07:56;;;;;;;15.27;10.57;;;;;;;4.77;87.41;94248.91;5022921;28;20436;-71
2023/01/21 00:10:22;;;;;;;16.30;10.90;;;;;;;4.65;88.27;94245.22;5010283;28;20430;-72
2023/01/21 00:12:47;;;;;;;14.57;10.27;;;;;;;4.58;89.48;94236.56;5010411;28;20422;-72
2023/01/21 00:15:13;;;;;;;13.03;8.77;;;;;;;4.75;89.55;94250.09;5011142;28;20184;-73
2023/01/21 00:17:38;;;;;;;15.57;10.13;;;;;;;4.72;88.58;94240.84;5010350;28;20480;-72
2023/01/21 00:20:05;;;;;;;14.93;9.47;;;;;;;4.75;88.00;94250.91;5011103;28;20180;-73
2023/01/21 00:22:31;;;;;;;14.77;9.07;;;;;;;4.80;87.96;94247.72;5010813;28;20490;-72
2023/01/21 00:24:56;;;;;;;15.43;11.23;;;;;;;4.74;88.30;94228.44;5009788;28;20425;-72
2023/01/21 00:27:22;;;;;;;14.70;9.45;;;;;;;4.72;87.14;94233.03;5010063;28;20442;-72
2023/01/21 00:29:47;;;;;;;15.68;10.15;;;;;;;4.60;87.47;94247.56;5009931;28;20422;-72
2023/01/21 00:32:13;;;;;;;15.97;10.10;;;;;;;4.45;88.29;94262.50;5010572;28;20414;-72
2023/01/21 00:34:39;;;;;;;14.13;9.53;;;;;;;4.38;88.42;94243.41;5010480;28;20889;-73
2023/01/21 00:37:04;;;;;;;15.73;10.40;;;;;;;4.47;88.96;94231.84;5009435;28;20422;-73
2023/01/21 00:39:30;;;;;;;11.40;9.00;;;;;;;4.63;87.13;94242.00;5009138;28;20422;-73
2023/01/21 00:41:55;;;;;;;11.18;8.23;;;;;;;4.62;87.67;94235.16;5010282;28;20419;-73
2023/01/21 00:44:21;;;;;;;10.97;8.17;;;;;;;4.71;86.17;94236.63;5017223;28;20772;-73
2023/01/21 00:46:46;;;;;;;11.97;8.20;;;;;;;4.73;86.01;94245.06;5009721;28;20439;-73
2023/01/21 00:49:11;;;;;;;11.93;7.23;;;;;;;4.75;85.96;94250.91;5010555;28;20524;-73
2023/01/21 00:51:37;;;;;;;10.67;8.07;;;;;;;4.45;86.42;94239.03;5009544;28;20428;-72
2023/01/21 00:54:02;;;;;;;10.97;8.53;;;;;;;4.30;87.55;94239.13;5009661;28;20426;-72
2023/01/21 00:56:28;;;;;;;9.53;6.97;;;;;;;4.36;87.70;94227.94;5010416;28;20396;-73
2023/01/21 00:58:53;;;;;;;10.23;7.50;;;;;;;4.39;87.48;94234.59;5010082;28;20438;-73
2023/01/21 01:01:20;;;;;;;12.03;8.60;;;;;;;4.41;87.16;94235.22;5009342;28;20411;-73
2023/01/21 01:03:47;;;;;;;13.48;8.13;;;;;;;4.46;87.38;94238.03;5027148;28;20827;-72
2023/01/21 01:06:16;;;;;;;10.77;7.70;;;;;;;4.51;87.18;94236.47;5009980;28;20881;-73
2023/01/21 01:08:42;;;;;;;12.20;7.75;;;;;;;4.59;87.06;94245.94;5010197;28;20414;-73
2023/01/21 01:11:08;;;;;;;11.00;6.93;;;;;;;4.66;87.13;94251.25;5010492;28;20184;-73
2023/01/21 01:13:34;;;;;;;11.80;8.68;;;;;;;4.63;87.16;94238.56;5009677;28;20410;-72
2023/01/21 01:16:01;;;;;;;13.27;8.68;;;;;;;4.68;87.34;94237.00;5008309;28;20426;-73
2023/01/21 01:18:28;;;;;;;12.93;7.17;;;;;;;4.77;86.58;94235.88;5010440;28;20663;-73
2023/01/21 01:20:54;;;;;;;11.53;7.83;;;;;;;4.75;86.63;94252.72;5018312;28;20421;-72
2023/01/21 01:23:20;;;;;;;10.33;7.27;;;;;;;4.64;86.97;94254.03;5028796;28;20475;-72
2023/01/21 01:26:03;;;;;;;11.33;8.47;;;;;;;4.48;87.76;94241.28;5028539;28;20931;-72
2023/01/21 01:28:30;;;;;;;11.18;7.53;;;;;;;4.33;88.06;94225.72;5029478;28;20437;-72
2023/01/21 01:30:56;;;;;;;12.88;8.07;;;;;;;4.37;88.65;94226.16;5029648;28;20892;-72
2023/01/21 01:33:22;;;;;;;11.80;7.85;;;;;;;4.46;88.11;94225.03;5029309;28;20471;-73
2023/01/21 01:35:48;;;;;;;10.98;8.10;;;;;;;4.28;88.17;94235.09;5029087;28;20842;-73
2023/01/21 01:38:20;;;;;;;13.10;8.10;;;;;;;4.38;88.98;94220.75;5011217;28;20902;-73
2023/01/21 01:40:46;;;;;;;10.82;7.85;;;;;;;4.23;88.92;94206.22;5009060;28;20966;-73
2023/01/21 01:43:15;;;;;;;10.98;7.53;;;;;;;4.29;88.30;94216.69;5009601;28;20470;-73
2023/01/21 01:45:41;;;;;;;12.07;8.50;;;;;;;4.18;89.31;94202.34;5009032;28;20415;-72
2023/01/21 01:48:08;;;;;;;12.07;8.20;;;;;;;4.11;89.34;94208.50;5028347;28;20970;-73
2023/01/21 01:50:37;;;;;;;16.35;9.15;;;;;;;4.11;90.24;94201.50;5029285;28;20421;-73
2023/01/21 01:53:03;;;;;;;11.00;6.57;;;;;;;4.29;89.58;94189.81;5031072;28;20215;-73
2023/01/21 01:55:32;;;;;;;11.55;8.07;;;;;;;4.37;89.08;94189.69;5032283;28;20825;-73
2023/01/21 01:58:00;;;;;;;9.82;6.50;;;;;;;4.26;88.54;94183.19;5032057;28;20810;-72
2023/01/21 02:00:26;;;;;;;12.30;8.63;;;;;;;4.32;88.57;94179.84;5031946;28;20416;-72
2023/01/21 02:05:39;;;;;;;11.18;8.20;;;;;;;4.40;88.83;94168.47;5032231;28;20413;-73
2023/01/21 02:08:05;;;;;;;12.97;7.50;;;;;;;4.37;88.63;94169.66;5033024;28;20204;-73
2023/01/21 02:10:33;;;;;;;11.83;7.47;;;;;;;4.49;88.63;94180.34;5032874;28;20210;-73
2023/01/21 02:12:59;;;;;;;10.37;6.90;;;;;;;4.41;88.98;94176.06;5033167;28;20299;-73
2023/01/21 02:15:33;;;;;;;13.18;7.78;;;;;;;4.52;88.78;94172.94;5032304;28;20424;-72
2023/01/21 02:18:09;;;;;;;9.35;7.05;;;;;;;4.33;87.60;94173.59;5032174;28;20404;-72
2023/01/21 02:21:03;;;;;;;10.73;7.10;;;;;;;4.25;88.69;94152.09;5032957;28;20171;-73
2023/01/21 02:23:37;;;;;;;11.40;6.40;;;;;;;4.18;89.03;94152.06;5014511;28;20184;-73
2023/01/21 02:26:14;;;;;;;9.65;6.82;;;;;;;4.25;89.14;94154.72;5012773;28;20972;-72
2023/01/21 02:29:26;;;;;;;10.50;7.40;;;;;;;4.31;89.23;94152.19;5012684;28;20448;-72
2023/01/21 02:32:06;;;;;;;10.32;7.75;;;;;;;4.31;88.53;94141.75;4999760;28;20426;-73
2023/01/21 02:34:36;;;;;;;9.32;6.95;;;;;;;4.33;87.93;94136.34;5003897;28;20418;-72
2023/01/21 02:37:28;;;;;;;9.80;7.10;;;;;;;4.35;87.69;94134.34;5012126;28;20410;-73
2023/01/21 02:40:18;;;;;;;8.98;7.07;;;;;;;4.07;88.81;94142.16;5011400;28;20410;-72
2023/01/21 02:42:46;;;;;;;10.10;7.95;;;;;;;3.72;90.28;94103.03;5011287;28;20428;-72
2023/01/21 02:45:29;;;;;;;10.57;7.78;;;;;;;3.81;91.24;94137.53;5003162;28;20509;-72
2023/01/21 02:48:12;;;;;;;11.20;8.00;;;;;;;3.87;90.70;94126.41;5027976;28;20433;-73
2023/01/21 02:50:45;;;;;;;9.15;7.10;;;;;;;3.89;91.10;94131.41;5031207;28;20459;-72
2023/01/21 02:53:26;;;;;;;10.20;6.60;;;;;;;3.92;90.96;94139.66;5032118;28;20431;-72
2023/01/21 02:55:53;;;;;;;11.60;8.60;;;;;;;4.10;91.31;94134.78;5031098;28;20479;-72
2023/01/21 02:58:25;;;;;;;10.53;7.67;;;;;;;4.16;90.42;94107.97;5031159;28;20495;-73
2023/01/21 03:01:12;;;;;;;13.40;7.43;;;;;;;4.28;89.62;94126.50;5032314;28;20269;-73
2023/01/21 03:03:40;;;;;;;11.30;7.90;;;;;;;4.14;89.80;94117.81;5030491;28;20420;-73
2023/01/21 03:06:38;;;;;;;12.18;7.97;;;;;;;4.38;89.67;94107.94;5023914;28;20402;-73
2023/01/21 03:09:09;;;;;;;10.43;7.20;;;;;;;4.37;88.96;94108.91;5011653;28;20496;-73
2023/01/21 03:11:35;;;;;;;9.20;6.80;;;;;;;4.29;89.81;94106.47;5012176;28;20210;-72
2023/01/21 03:17:30;;;;;;;10.38;7.68;;;;;;;4.24;89.88;94094.00;5011220;28;20424;-72
2023/01/21 03:19:58;;;;;;;10.35;7.30;;;;;;;4.33;89.52;94100.66;4997680;28;20438;-72
2023/01/21 03:22:28;;;;;;;10.07;7.30;;;;;;;4.28;89.83;94094.44;5012075;28;20623;-72
2023/01/21 03:24:57;;;;;;;11.20;7.82;;;;;;;4.32;89.92;94087.88;5010982;28;20483;-72
2023/01/21 03:27:25;;;;;;;10.65;7.82;;;;;;;4.43;89.26;94089.91;5010974;28;20442;-72
2023/01/21 03:29:57;;;;;;;10.80;8.02;;;;;;;4.36;89.32;94089.88;5011139;28;20422;-72
2023/01/21 03:32:22;;;;;;;10.15;7.20;;;;;;;4.55;88.73;94089.19;5010963;28;20541;-72
2023/01/21 03:34:52;;;;;;;8.90;7.20;;;;;;;4.60;87.76;94085.19;5010387;28;20445;-72
2023/01/21 03:37:27;;;;;;;7.07;5.10;;;;;;;4.59;87.29;94076.56;5011630;28;20561;-73
2023/01/21 03:40:04;;;;;;;8.48;6.35;;;;;;;4.56;86.86;94069.16;5011003;28;20425;-72
2023/01/21 03:42:30;;;;;;;8.75;6.03;;;;;;;4.57;86.89;94069.97;5009859;28;20926;-72
2023/01/21 03:44:55;;;;;;;7.93;5.17;;;;;;;4.52;86.51;94073.94;5011952;28;20184;-72
2023/01/21 03:47:28;;;;;;;9.75;6.20;;;;;;;4.41;86.85;94073.69;5010739;28;20457;-72
2023/01/21 03:50:12;;;;;;;8.10;5.33;;;;;;;4.30;87.09;94063.81;5011471;28;20180;-72
2023/01/21 03:52:40;;;;;;;7.73;5.53;;;;;;;4.22;87.07;94069.16;5011546;28;20674;-72
2023/01/21 03:55:06;;;;;;;8.52;6.18;;;;;;;4.20;87.68;94060.72;5000733;28;20430;-72
2023/01/21 03:57:32;;;;;;;9.37;6.40;;;;;;;4.15;87.57;94056.88;5010573;28;20521;-72
2023/01/21 03:59:57;;;;;;;9.77;5.70;;;;;;;4.18;87.85;94059.13;5011582;28;21012;-73
2023/01/21 04:02:22;;;;;;;10.30;6.73;;;;;;;4.22;87.87;94061.34;5010535;28;20421;-72
2023/01/21 04:04:48;;;;;;;10.13;7.40;;;;;;;4.10;88.04;94067.09;5009949;28;20919;-73
2023/01/21 04:07:16;;;;;;;8.63;5.67;;;;;;;4.09;88.00;94069.88;5011031;28;20282;-73
2023/01/21 04:09:41;;;;;;;9.50;6.03;;;;;;;4.10;88.41;94059.28;5011481;28;20632;-73
2023/01/21 04:12:07;;;;;;;10.03;6.80;;;;;;;4.17;88.62;94064.50;5010031;28;20425;-73
2023/01/21 04:14:33;;;;;;;11.23;7.00;;;;;;;4.13;88.63;94060.69;5010060;28;20429;-73
2023/01/21 04:16:58;;;;;;;8.83;6.13;;;;;;;4.12;88.49;94064.28;5011141;28;20690;-73
2023/01/21 04:19:23;;;;;;;9.23;6.80;;;;;;;4.11;88.38;94034.84;5011054;28;20180;-72
2023/01/21 04:21:49;;;;;;;9.90;6.30;;;;;;;4.17;88.74;94025.44;5010954;28;20263;-72
2023/01/21 04:24:14;;;;;;;9.03;5.93;;;;;;;4.07;88.41;94023.19;5011098;28;20215;-72
2023/01/21 04:26:40;;;;;;;12.43;6.80;;;;;;;4.11;88.34;94047.88;5010975;28;20242;-73
2023/01/21 04:29:06;;;;;;;9.82;7.22;;;;;;;4.02;88.70;94051.59;5010127;28;20414;-73
2023/01/21 04:31:31;;;;;;;9.23;6.93;;;;;;;4.04;89.33;94060.03;5010578;28;20184;-73
2023/01/21 04:33:57;;;;;;;10.27;6.07;;;;;;;4.07;89.57;94049.22;5009461;28;20176;-73
2023/01/21 04:36:22;;;;;;;9.47;6.77;;;;;;;4.08;89.19;94058.66;5011034;28;20188;-73
2023/01/21 04:38:47;;;;;;;10.13;6.60;;;;;;;4.01;89.48;94060.41;5011040;28;20180;-73
2023/01/21 04:41:13;;;;;;;9.83;6.67;;;;;;;4.05;89.49;94072.06;5010824;28;20187;-73
2023/01/21 04:43:38;;;;;;;14.90;10.07;;;;;;;4.03;89.66;94094.88;5010015;28;20419;-73
2023/01/21 04:46:04;;;;;;;13.10;9.30;;;;;;;4.00;89.60;94089.22;5010894;28;20184;-73
2023/01/21 04:48:30;;;;;;;14.60;10.53;;;;;;;4.12;89.43;94096.34;5009805;28;20517;-73
2023/01/21 04:50:55;;;;;;;15.47;10.57;;;;;;;4.14;89.11;94094.38;5010376;28;20502;-73
2023/01/21 04:53:20;;;;;;;13.68;8.65;;;;;;;3.99;89.13;94083.22;5010215;28;20501;-74
2023/01/21 04:55:46;;;;;;;16.07;8.47;;;;;;;4.00;89.30;94084.03;5010647;28;20623;-74
2023/01/21 04:58:11;;;;;;;11.40;7.93;;;;;;;4.07;89.59;94079.66;5009302;28;20224;-74
2023/01/21 05:00:37;;;;;;;13.67;7.73;;;;;;;4.07;89.41;94085.69;5010610;28;20191;-74
2023/01/21 05:03:02;;;;;;;17.93;11.33;;;;;;;4.14;89.41;94098.75;5009910;28;20430;-73
2023/01/21 05:05:28;;;;;;;16.37;10.10;;;;;;;4.12;89.78;94105.97;5010515;28;20184;-74
2023/01/21 05:07:53;;;;;;;19.42;11.93;;;;;;;4.13;89.55;94112.78;5007878;28;20517;-74
2023/01/21 05:10:19;;;;;;;18.20;11.70;;;;;;;4.08;89.24;94100.31;5010918;28;20184;-72
2023/01/21 05:12:45;;;;;;;20.23;12.43;;;;;;;4.09;89.63;94109.75;5010242;28;20188;-74
2023/01/21 05:15:10;;;;;;;20.67;12.77;;;;;;;4.14;89.23;94122.19;5021982;28;20274;-74
2023/01/21 05:17:36;;;;;;;28.10;14.23;;;;;;;4.06;89.65;94119.75;5011985;28;20941;-73
2023/01/21 05:20:03;;;;;;;22.53;11.27;;;;;;;4.08;89.33;94107.31;5010013;28;20191;-74
2023/01/21 05:22:28;;;;;;;25.67;13.75;;;;;;;4.02;89.60;94113.28;5009662;28;20410;-74
2023/01/21 05:24:53;;;;;;;25.73;13.83;;;;;;;4.00;89.67;94123.88;5025790;28;20770;-74
2023/01/21 05:27:20;;;;;;;23.97;12.43;;;;;;;4.02;89.14;94111.50;5033093;28;20202;-74
2023/01/21 05:29:46;;;;;;;28.80;13.27;;;;;;;4.03;89.80;94114.91;5032859;28;20474;-74
2023/01/21 05:32:11;;;;;;;41.40;14.67;;;;;;;4.07;89.43;94126.53;5019795;28;20188;-74
2023/01/21 05:34:37;;;;;;;30.33;13.50;;;;;;;4.08;89.12;94135.97;5013929;28;20225;-74
2023/01/21 05:37:02;;;;;;;31.03;14.50;;;;;;;4.04;89.35;94132.94;5027652;28;20507;-74
2023/01/21 05:39:28;;;;;;;28.70;13.03;;;;;;;4.00;89.06;94131.69;5033541;28;20187;-74
2023/01/21 05:41:53;;;;;;;27.67;13.10;;;;;;;4.00;89.45;94143.91;5028620;28;20220;-74
2023/01/21 05:44:19;;;;;;;27.77;15.33;;;;;;;3.84;89.67;94139.78;5012437;28;20418;-74
2023/01/21 05:46:44;;;;;;;23.60;12.90;;;;;;;3.78;90.14;94137.94;5013750;28;20207;-73
2023/01/21 05:49:09;;;;;;;26.20;13.63;;;;;;;3.72;89.88;94143.84;5024236;28;20215;-73
2023/01/21 05:51:35;;;;;;;26.47;15.53;;;;;;;3.71;90.29;94144.88;5032249;28;20481;-73
2023/01/21 05:54:00;;;;;;;22.80;14.57;;;;;;;3.70;90.06;94156.28;5032320;28;20416;-73
2023/01/21 05:56:25;;;;;;;22.65;14.27;;;;;;;3.50;90.65;94142.25;5032548;28;20979;-73
2023/01/21 05:58:51;;;;;;;24.60;14.67;;;;;;;3.39;91.79;94126.16;5032148;28;20436;-73
2023/01/21 06:01:16;;;;;;;20.37;12.10;;;;;;;3.53;91.20;94118.50;5029077;28;20593;-73
2023/01/21 06:03:42;;;;;;;22.57;12.87;;;;;;;3.59;90.80;94128.13;5013515;28;20172;-73
2023/01/21 06:06:07;;;;;;;18.83;12.07;;;;;;;3.64;90.38;94125.78;5013299;28;20207;-73
2023/01/21 06:08:32;;;;;;;18.37;10.93;;;;;;;3.62;90.43;94138.19;5013088;28;20215;-72
2023/01/21 06:10:58;;;;;;;17.50;11.27;;;;;;;3.53;89.98;94126.28;5013385;28;20181;-72
2023/01/21 06:13:23;;;;;;;19.40;11.57;;;;;;;3.55;90.12;94127.69;5013090;28;20263;-73
2023/01/21 06:15:53;;;;;;;24.33;13.40;;;;;;;3.67;90.22;94131.41;5028192;28;20195;-73
2023/01/21 06:18:18;;;;;;;26.13;14.83;;;;;;;3.75;89.73;94144.31;5013761;28;20314;-73
2023/01/21 06:20:44;;;;;;;30.53;14.57;;;;;;;3.76;89.31;94138.13;5012942;28;20677;-73
2023/01/21 06:23:09;;;;;;;28.23;15.90;;;;;;;3.76;89.41;94145.91;5013038;28;20188;-73
2023/01/21 06:25:35;;;;;;;29.43;14.83;;;;;;;3.72;89.31;94155.06;5013045;28;20238;-72
2023/01/21 06:28:00;;;;;;;26.63;15.50;;;;;;;3.74;89.39;94139.28;5013004;28;20204;-72
2023/01/21 06:30:26;;;;;;;30.07;17.50;;;;;;;3.78;89.28;94137.94;5012529;28;20263;-73
2023/01/21 06:32:52;;;;;;;35.27;19.73;;;;;;;3.85;89.41;94144.00;5012753;28;20230;-73
2023/01/21 06:35:17;;;;;;;32.20;18.23;;;;;;;3.93;89.17;94146.47;5012891;28;20651;-73
2023/01/21 06:37:44;;;;;;;36.63;20.43;;;;;;;4.11;89.21;94162.44;5024696;28;20568;-73
2023/01/21 06:40:10;;;;;;;57.83;27.33;;;;;;;4.44;88.52;94169.69;5032497;28;20179;-73
2023/01/21 06:42:36;;;;;;;58.80;28.07;;;;;;;4.78;87.62;94150.63;5032493;28;20262;-73
2023/01/21 06:45:01;;;;;;;64.03;29.73;;;;;;;5.39;86.23;94158.53;5032787;28;20325;-74
2023/01/21 06:47:27;;;;;;;54.60;27.57;;;;;;;5.99;83.69;94153.25;5047900;28;20196;-73
2023/01/21 06:49:52;;;;;;;52.40;26.27;;;;;;;6.61;80.61;94172.94;5032664;28;20657;-74
2023/01/21 06:52:17;;;;;;;45.93;22.43;;;;;;;7.11;77.54;94187.13;5032409;28;20261;-74
2023/01/21 06:54:43;;;;;;;32.60;19.00;;;;;;;7.12;77.20;94182.69;5032425;28;20187;-75
2023/01/21 06:57:09;;;;;;;38.83;18.07;;;;;;;7.03;77.53;94184.72;5019296;28;20221;-75
2023/01/21 06:59:34;;;;;;;29.13;16.10;;;;;;;7.14;77.55;94199.00;5028053;28;20181;-72
2023/01/21 07:02:00;;;;;;;31.90;16.13;;;;;;;6.89;77.63;94201.47;5031935;28;20207;-74
2023/01/21 07:04:26;;;;;;;34.27;17.50;;;;;;;6.68;78.45;94206.91;5032209;28;20210;-74
2023/01/21 07:06:53;;;;;;;35.40;18.43;;;;;;;6.54;79.22;94200.09;5027486;28;20294;-74
2023/01/21 07:09:19;;;;;;;32.33;17.10;;;;;;;6.73;80.11;94186.22;5012379;28;20172;-74
2023/01/21 07:11:45;;;;;;;27.97;15.43;;;;;;;7.07;79.32;94193.78;5012112;28;20176;-74
2023/01/21 07:14:10;;;;;;;29.17;14.87;;;;;;;7.95;76.72;94186.16;5012163;28;20542;-73
2023/01/21 07:16:35;;;;;;;28.10;15.43;;;;;;;8.85;73.27;94195.34;5012030;28;20180;-74
2023/01/21 07:19:01;;;;;;;30.87;14.70;;;;;;;9.42;69.72;94198.63;5011258;28;20180;-74
2023/01/21 07:21:26;;;;;;;30.50;16.27;;;;;;;10.31;67.87;94212.84;5012049;28;20215;-74
2023/01/21 07:23:52;;;;;;;29.07;16.80;;;;;;;11.20;64.81;94207.34;5010256;28;20173;-74
2023/01/21 07:26:18;;;;;;;28.43;16.13;;;;;;;12.32;61.72;94206.94;5011733;28;20640;-74
2023/01/21 07:28:44;;;;;;;35.13;18.10;;;;;;;13.27;58.82;94220.09;5028140;28;20215;-74
2023/01/21 07:31:09;;;;;;;32.10;18.23;;;;;;;14.28;55.86;94204.66;5012633;28;20330;-74
2023/01/21 07:33:34;;;;;;;41.00;23.70;;;;;;;15.67;52.71;94206.31;5015002;28;20262;-74
2023/01/21 07:36:02;;;;;;;36.65;21.55;;;;;;;16.91;49.06;94187.53;5031385;28;20215;-74
2023/01/21 07:38:27;;;;;;;27.60;17.42;;;;;;;17.84;46.02;94175.66;5013730;28;20655;-74
2023/01/21 07:40:53;;;;;;;23.70;14.27;;;;;;;18.30;44.65;94178.91;5010595;28;20188;-74
2023/01/21 07:43:18;;;;;;;21.20;13.95;;;;;;;18.94;43.31;94178.75;5010345;28;20180;-74
2023/01/21 07:45:44;;;;;;;17.38;10.57;;;;;;;19.54;41.25;94187.34;5010760;28;20263;-74
2023/01/21 07:48:10;;;;;;;13.93;9.90;;;;;;;20.52;38.94;94180.53;5012034;28;20266;-74
2023/01/21 07:50:37;;;;;;;15.40;11.13;;;;;;;21.35;36.81;94190.53;5011449;28;20191;-74
2023/01/21 07:53:03;;;;;;;13.02;10.07;;;;;;;22.30;34.63;94175.63;5011484;28;20181;-74
2023/01/21 07:55:29;;;;;;;12.48;9.95;;;;;;;23.30;32.54;94187.81;5010948;28;20192;-74
2023/01/21 07:57:56;;;;;;;16.20;10.13;;;;;;;24.23;30.48;94180.56;5011054;28;20279;-74
2023/01/21 08:00:22;;;;;;;11.75;9.48;;;;;;;24.78;28.48;94177.31;5010070;28;20267;-75
2023/01/21 08:02:53;;;;;;;16.65;10.32;;;;;;;24.99;28.38;94167.53;5011522;28;20271;-75
2023/01/21 08:05:19;;;;;;;14.48;10.07;;;;;;;24.37;27.99;94154.34;5015919;28;20179;-74
2023/01/21 08:07:44;;;;;;;15.52;11.60;;;;;;;23.20;29.54;94162.00;5016178;28;20254;-74
2023/01/21 08:10:09;;;;;;;15.38;7.70;;;;;;;20.29;33.35;94155.44;5015682;28;20188;-74
2023/01/21 08:12:35;;;;;;;8.50;4.90;;;;;;;18.76;35.69;94182.13;5013706;28;20219;-73
2023/01/21 08:15:00;;;;;;;5.60;3.80;;;;;;;17.45;38.49;94178.97;5016820;28;20190;-75
2023/01/21 08:17:26;;;;;;;6.22;3.90;;;;;;;15.64;42.71;94180.31;5012568;28;20199;-74
2023/01/21 08:19:52;;;;;;;3.30;2.90;;;;;;;15.20;43.14;94179.75;5013357;28;20200;-74
2023/01/21 08:22:18;;;;;;;5.70;3.27;;;;;;;15.10;44.52;94180.50;5014464;28;20573;-74
2023/01/21 08:24:45;;;;;;;19.07;11.47;;;;;;;15.39;46.18;94179.06;5011240;28;20184;-74
2023/01/21 08:27:10;;;;;;;10.88;4.68;;;;;;;15.68;42.91;94184.81;5011648;28;20231;-74
2023/01/21 08:29:35;;;;;;;3.95;2.72;;;;;;;15.99;43.31;94179.66;5015978;28;20846;-73
2023/01/21 08:32:01;;;;;;;5.63;3.28;;;;;;;16.14;42.86;94172.53;5009603;28;20173;-73
2023/01/21 08:34:27;;;;;;;6.10;3.58;;;;;;;15.97;42.54;94184.41;5013671;28;20737;-73
2023/01/21 08:36:53;;;;;;;5.03;4.00;;;;;;;15.25;43.15;94187.75;5012859;28;20192;-72
2023/01/21 08:39:18;;;;;;;6.03;3.47;;;;;;;14.72;45.27;94187.63;5013132;28;20915;-73
2023/01/21 08:41:44;;;;;;;5.90;3.57;;;;;;;14.70;46.38;94191.59;5009758;28;20188;-73
2023/01/21 08:44:10;;;;;;;4.13;3.27;;;;;;;14.49;46.09;94198.56;5011999;28;20179;-73
2023/01/21 08:46:35;;;;;;;4.13;2.90;;;;;;;13.81;46.43;94193.84;5009076;28;20195;-73
2023/01/21 08:49:01;;;;;;;4.33;2.80;;;;;;;13.10;48.51;94195.50;5014800;28;20179;-73
2023/01/21 08:51:26;;;;;;;5.30;3.50;;;;;;;12.65;50.32;94208.81;5017215;28;20180;-73
2023/01/21 08:53:51;;;;;;;4.70;3.10;;;;;;;12.69;51.67;94200.19;5009252;28;20176;-74
2023/01/21 08:56:17;;;;;;;3.90;3.07;;;;;;;12.72;50.65;94188.31;5013398;28;20195;-72
2023/01/21 08:58:43;;;;;;;8.70;3.10;;;;;;;11.82;53.29;94201.50;5009533;28;20641;-72
2023/01/21 09:01:11;;;;;;;5.90;3.63;;;;;;;11.46;56.47;94203.41;5011808;28;20180;-73
2023/01/21 09:03:37;;;;;;;5.30;3.17;;;;;;;11.25;57.01;94204.00;5014480;28;20195;-74
2023/01/21 09:06:05;;;;;;;4.40;3.00;;;;;;;10.86;58.06;94205.50;5019055;28;20181;-72
2023/01/21 09:08:31;;;;;;;82.50;25.93;;;;;;;10.84;57.55;94195.19;5015292;28;20825;-72
2023/01/21 09:11:00;;;;;;;4.50;2.90;;;;;;;10.51;58.89;94200.19;5017408;28;20196;-72
2023/01/21 09:13:27;;;;;;;6.70;3.00;;;;;;;10.52;59.55;94184.19;5013990;28;20192;-72
2023/01/21 09:15:54;;;;;;;6.43;2.80;;;;;;;10.62;60.32;94182.84;5015965;28;20639;-74
2023/01/21 09:18:19;;;;;;;5.03;2.80;;;;;;;10.68;61.33;94182.72;5016187;28;20188;-74
2023/01/21 09:20:44;;;;;;;5.57;3.40;;;;;;;10.86;59.04;94182.63;5013211;28;20276;-74
2023/01/21 09:23:26;;;;;;;4.73;2.50;;;;;;;11.01;59.44;94174.25;5017749;28;20199;-74
2023/01/21 09:25:59;;;;;;;3.83;2.50;;;;;;;11.38;58.32;94176.59;5016378;28;20184;-74
2023/01/21 09:28:25;;;;;;;5.13;2.40;;;;;;;11.55;56.87;94169.59;5015697;28;20208;-75
2023/01/21 09:30:58;;;;;;;2.77;2.47;;;;;;;11.63;57.02;94177.13;5016085;28;20271;-74
2023/01/21 09:33:24;;;;;;;4.87;2.80;;;;;;;11.50;56.72;94178.16;5016131;28;20183;-73
2023/01/21 09:35:57;;;;;;;5.33;2.33;;;;;;;11.59;57.85;94163.59;5019220;28;20183;-74
2023/01/21 09:38:23;;;;;;;2.30;1.70;;;;;;;11.63;55.48;94146.28;5013453;28;20563;-75
2023/01/21 09:40:50;;;;;;;2.63;2.10;;;;;;;11.67;56.96;94139.53;5019632;28;20187;-74
2023/01/21 09:43:25;;;;;;;2.77;2.13;;;;;;;11.68;55.56;94148.22;5017918;28;20246;-75
2023/01/21 09:45:55;;;;;;;2.63;1.70;;;;;;;11.70;55.85;94149.59;5019411;28;20345;-75
2023/01/21 09:48:32;;;;;;;2.27;1.90;;;;;;;11.83;54.63;94155.66;5020663;28;20200;-74
2023/01/21 09:51:04;;;;;;;2.20;1.70;;;;;;;11.79;54.99;94159.78;5019077;28;20176;-74
2023/01/21 09:53:44;;;;;;;5.17;2.80;;;;;;;11.50;56.22;94157.09;5016256;28;20187;-75
2023/01/21 09:56:25;;;;;;;1.80;1.70;;;;;;;10.74;57.82;94134.41;5016845;28;20279;-75
2023/01/21 09:59:07;;;;;;;4.50;1.80;;;;;;;10.56;58.96;94155.56;5015872;28;20232;-74
2023/01/21 10:01:37;;;;;;;2.97;1.43;;;;;;;9.99;62.18;94139.44;5017955;28;20631;-74
2023/01/21 10:04:21;;;;;;;1.50;1.40;;;;;;;10.29;63.04;94134.16;5021976;28;20666;-75
2023/01/21 10:06:54;;;;;;;5.70;1.83;;;;;;;10.17;61.74;94128.88;5015900;28;20211;-75
2023/01/21 10:09:31;;;;;;;2.30;1.50;;;;;;;10.02;62.39;94128.50;5015505;28;20644;-74
2023/01/21 10:12:17;;;;;;;2.40;1.77;;;;;;;9.67;65.07;94128.38;5017444;28;20183;-75
2023/01/21 10:15:15;;;;;;;2.47;1.63;;;;;;;9.44;65.80;94126.44;5018035;28;20207;-74
2023/01/21 10:17:58;;;;;;;2.10;1.67;;;;;;;9.49;65.25;94130.22;5015345;28;20258;-75
2023/01/21 10:20:43;;;;;;;1.97;1.77;;;;;;;9.12;67.27;94127.63;5016602;28;20227;-73
2023/01/21 10:23:30;;;;;;;2.33;2.13;;;;;;;8.83;69.81;94120.47;5022135;28;20186;-74
2023/01/21 10:26:01;;;;;;;2.33;1.50;;;;;;;9.09;68.36;94133.31;5018211;28;20263;-74
2023/01/21 10:28:29;;;;;;;2.07;1.67;;;;;;;9.16;67.89;94139.31;5019025;28;20224;-75
2023/01/21 10:31:29;;;;;;;2.27;1.80;;;;;;;9.12;68.51;94126.84;5034053;28;20210;-73
2023/01/21 10:33:55;;;;;;;1.80;1.60;;;;;;;9.38;67.47;94137.84;4985334;28;20193;-74
2023/01/21 10:37:13;;;;;;;2.20;1.73;;;;;;;9.55;68.50;94126.72;5012159;28;20192;-73
2023/01/21 10:39:53;;;;;;;1.93;1.47;;;;;;;9.46;66.29;94124.41;5000190;28;20200;-74
2023/01/21 10:42:45;;;;;;;1.77;1.67;;;;;;;9.44;67.45;94123.81;5026230;28;20196;-75
2023/01/21 10:45:31;;;;;;;1.63;1.53;;;;;;;9.49;67.52;94110.03;5009059;28;20203;-76
2023/01/21 10:48:13;;;;;;;4.10;2.63;;;;;;;9.60;68.99;94093.47;5017666;28;20207;-75
2023/01/21 10:50:44;;;;;;;4.17;2.33;;;;;;;9.82;66.52;94107.75;5011949;28;20207;-75
2023/01/21 10:53:16;;;;;;;2.87;1.80;;;;;;;9.89;66.33;94104.19;5012857;28;20238;-72
2023/01/21 10:55:41;;;;;;;2.93;2.00;;;;;;;9.92;66.32;94109.03;5010981;28;20279;-73
2023/01/21 10:58:16;;;;;;;2.93;2.07;;;;;;;9.99;66.74;94097.38;5011417;28;20303;-73
2023/01/21 11:00:46;;;;;;;1.70;1.50;;;;;;;10.14;65.24;94100.38;5033621;28;20183;-74
2023/01/21 11:03:37;;;;;;;3.17;1.63;;;;;;;10.11;64.98;94077.19;5013376;28;20176;-75
2023/01/21 11:06:07;;;;;;;3.87;2.17;;;;;;;10.26;65.03;94068.88;5005668;28;20180;-73
2023/01/21 11:08:34;;;;;;;2.77;1.63;;;;;;;10.19;63.92;94055.81;5009179;28;20623;-74
2023/01/21 11:11:01;;;;;;;1.90;1.77;;;;;;;10.30;64.24;94069.19;5009184;28;20335;-74
2023/01/21 11:13:27;;;;;;;2.37;2.00;;;;;;;10.28;64.56;94068.63;5010026;28;20180;-75
2023/01/21 11:15:55;;;;;;;2.60;1.70;;;;;;;10.25;63.55;94084.88;5025415;28;20188;-74
2023/01/21 11:18:41;;;;;;;2.53;1.93;;;;;;;10.19;63.68;94095.28;5021635;28;20173;-74
2023/01/21 11:21:20;;;;;;;2.20;1.90;;;;;;;10.12;64.70;94093.72;5021612;28;20221;-74
2023/01/21 11:24:03;;;;;;;2.40;1.80;;;;;;;10.03;65.00;94093.25;5021218;28;20187;-74
2023/01/21 11:26:34;;;;;;;4.07;1.97;;;;;;;10.20;64.71;94101.34;5017454;28;20187;-75
2023/01/21 11:29:05;;;;;;;2.97;1.73;;;;;;;10.22;64.88;94094.00;5019370;28;20192;-75
2023/01/21 11:31:32;;;;;;;3.13;1.90;;;;;;;10.34;64.54;94102.72;5010886;28;20184;-75
2023/01/21 11:34:05;;;;;;;2.27;1.50;;;;;;;10.29;66.07;94084.16;5011868;28;20185;-74
2023/01/21 11:36:31;;;;;;;5.93;2.10;;;;;;;10.59;63.26;94091.97;5022822;28;20195;-74
2023/01/21 11:39:05;;;;;;;2.27;1.73;;;;;;;10.71;62.04;94084.06;5009299;28;20629;-76
2023/01/21 11:41:32;;;;;;;1.83;1.70;;;;;;;10.81;63.47;94090.34;5010721;28;20184;-75
2023/01/21 11:44:18;;;;;;;2.30;1.47;;;;;;;10.70;61.30;94085.91;5009869;28;20187;-74
2023/01/21 11:46:44;;;;;;;4.20;1.87;;;;;;;10.60;62.66;94077.78;5009291;28;20255;-75